createdAt,value
2022-08-22T00:01:29.346Z,19.83
2022-08-22T00:02:56.170Z,20.57
2022-08-22T00:02:57.071Z,21.01
2022-08-22T00:03:04.494Z,20.39
2022-08-22T00:04:37.736Z,19.84
2022-08-22T00:07:16.576Z,19.82
2022-08-22T00:09:52.873Z,19.81
2022-08-22T00:12:33.279Z,19.83
2022-08-22T00:15:42.323Z,19.76
2022-08-22T00:18:30.173Z,19.76
2022-08-22T00:21:18.603Z,19.83
2022-08-22T00:24:28.803Z,19.69
2022-08-22T00:27:04.114Z,19.11
2022-08-22T00:29:54.988Z,19.43
2022-08-22T00:32:25.543Z,19.63
2022-08-22T00:35:00.125Z,19.77
2022-08-22T00:38:05.581Z,19.63
2022-08-22T00:40:35.766Z,19.61
2022-08-22T00:43:18.709Z,19.83
2022-08-22T00:46:07.984Z,19.79
2022-08-22T00:49:00.377Z,19.86
2022-08-22T00:51:43.289Z,19.94
2022-08-22T00:55:00.989Z,19.95
2022-08-22T00:58:01.925Z,19.89
2022-08-22T01:00:42.352Z,19.76
2022-08-22T01:03:38.146Z,19.83
2022-08-22T01:06:12.221Z,19.86
2022-08-22T01:08:48.508Z,19.92
2022-08-22T01:11:35.361Z,20.14
2022-08-22T01:14:34.380Z,20.10
2022-08-22T01:17:15.360Z,20.20
2022-08-22T01:19:46.272Z,19.92
2022-08-22T01:22:39.299Z,19.85
2022-08-22T01:25:44.274Z,19.88
2022-08-22T01:29:04.759Z,19.89
2022-08-22T01:32:26.659Z,19.80
2022-08-22T01:35:34.815Z,19.92
2022-08-22T01:38:57.221Z,19.80
2022-08-22T01:41:29.103Z,19.83
2022-08-22T01:44:08.651Z,19.74
2022-08-22T01:46:51.330Z,19.68
2022-08-22T01:49:35.004Z,19.74
2022-08-22T01:52:19.833Z,19.62
2022-08-22T01:55:01.881Z,19.54
2022-08-22T01:57:29.943Z,19.67
2022-08-22T02:00:01.172Z,19.64
2022-08-22T02:02:41.229Z,19.69
2022-08-22T02:05:31.620Z,19.83
2022-08-22T02:08:19.330Z,19.79
2022-08-22T02:11:09.848Z,19.67
2022-08-22T02:14:00.464Z,19.56
2022-08-22T02:16:46.245Z,19.58
2022-08-22T02:19:15.011Z,19.46
2022-08-22T02:22:13.282Z,19.58
2022-08-22T02:24:47.926Z,19.59
2022-08-22T02:27:51.534Z,19.54
2022-08-22T02:30:22.277Z,19.64
2022-08-22T02:33:10.313Z,19.58
2022-08-22T02:35:47.161Z,19.64
2022-08-22T02:38:24.255Z,19.64
2022-08-22T02:41:10.870Z,19.63
2022-08-22T02:43:55.202Z,19.73
2022-08-22T02:46:41.604Z,19.69
2022-08-22T02:49:23.501Z,19.71
2022-08-22T02:51:54.987Z,19.69
2022-08-22T02:54:48.005Z,19.72
2022-08-22T02:57:31.259Z,19.67
2022-08-22T03:00:32.828Z,19.66
2022-08-22T03:03:23.797Z,19.68
2022-08-22T03:06:05.998Z,19.77
2022-08-22T03:08:38.919Z,19.79
2022-08-22T03:11:26.767Z,19.77
2022-08-22T03:14:12.640Z,19.90
2022-08-22T03:16:49.939Z,19.73
2022-08-22T03:19:48.707Z,19.59
2022-08-22T03:22:22.940Z,19.56
2022-08-22T03:25:44.734Z,19.47
2022-08-22T03:28:21.708Z,19.45
2022-08-22T03:30:57.377Z,19.54
2022-08-22T03:33:28.335Z,19.57
2022-08-22T03:36:22.519Z,19.53
2022-08-22T03:39:17.200Z,19.57
2022-08-22T03:41:48.041Z,19.56
2022-08-22T03:44:56.680Z,19.66
2022-08-22T03:47:55.034Z,19.69
2022-08-22T03:50:39.497Z,19.67
2022-08-22T03:53:19.465Z,19.69
2022-08-22T03:56:16.493Z,19.72
2022-08-22T03:59:09.945Z,19.80
2022-08-22T04:01:56.271Z,19.81
2022-08-22T04:04:57.004Z,19.81
2022-08-22T04:07:46.213Z,19.86
2022-08-22T04:10:50.067Z,19.87
2022-08-22T04:13:39.973Z,19.80
2022-08-22T04:16:51.819Z,19.83
2022-08-22T04:20:16.661Z,19.92
2022-08-22T04:22:59.414Z,19.81
2022-08-22T04:28:54.169Z,20.03
2022-08-22T04:31:35.902Z,19.96
2022-08-22T04:34:14.473Z,20.03
2022-08-22T04:36:50.851Z,20.10
2022-08-22T04:39:30.671Z,20.00
2022-08-22T04:42:31.175Z,20.07
2022-08-22T04:45:35.244Z,20.18
2022-08-22T04:48:29.764Z,20.12
2022-08-22T04:51:23.834Z,20.16
2022-08-22T04:54:17.911Z,20.08
2022-08-22T04:57:30.225Z,20.17
2022-08-22T05:00:18.320Z,20.23
2022-08-22T05:03:12.415Z,20.39
2022-08-22T05:06:01.712Z,20.54
2022-08-22T05:08:53.805Z,20.63
2022-08-22T05:11:42.820Z,20.54
2022-08-22T05:14:40.361Z,20.58
2022-08-22T05:17:29.495Z,20.65
2022-08-22T05:20:19.919Z,20.54
2022-08-22T05:23:17.907Z,20.48
2022-08-22T05:26:06.538Z,20.66
2022-08-22T05:28:59.995Z,20.79
2022-08-22T05:31:51.860Z,20.75
2022-08-22T05:34:41.835Z,20.96
2022-08-22T05:37:44.295Z,20.96
2022-08-22T05:40:33.766Z,20.95
2022-08-22T05:43:25.916Z,20.94
2022-08-22T05:46:27.155Z,21.09
2022-08-22T05:49:19.095Z,21.03
2022-08-22T05:52:24.912Z,21.14
2022-08-22T05:55:36.653Z,21.09
2022-08-22T05:58:39.761Z,21.05
2022-08-22T06:01:34.749Z,21.14
2022-08-22T06:04:34.770Z,21.16
2022-08-22T06:07:27.619Z,21.20
2022-08-22T06:10:24.856Z,21.27
2022-08-22T06:13:23.567Z,21.47
2022-08-22T06:16:38.841Z,21.63
2022-08-22T06:19:37.030Z,21.51
2022-08-22T06:22:29.481Z,21.57
2022-08-22T06:25:33.169Z,21.56
2022-08-22T06:28:24.951Z,21.52
2022-08-22T06:31:23.593Z,21.52
2022-08-22T06:34:17.973Z,21.52
2022-08-22T06:37:08.484Z,21.57
2022-08-22T06:39:56.901Z,21.69
2022-08-22T06:42:48.128Z,21.64
2022-08-22T06:45:36.086Z,21.85
2022-08-22T06:48:23.902Z,21.95
2022-08-22T06:51:12.427Z,22.04
2022-08-22T06:54:03.952Z,22.04
2022-08-22T06:56:52.834Z,22.27
2022-08-22T06:59:41.176Z,22.15
2022-08-22T07:02:35.988Z,21.86
2022-08-22T07:05:27.197Z,21.75
2022-08-22T07:08:18.716Z,21.76
2022-08-22T07:11:28.849Z,21.93
2022-08-22T07:14:18.242Z,21.96
2022-08-22T07:17:06.873Z,22.25
2022-08-22T07:20:23.271Z,22.29
2022-08-22T07:23:13.289Z,22.25
2022-08-22T07:26:26.492Z,22.46
2022-08-22T07:29:14.018Z,22.57
2022-08-22T07:32:32.805Z,22.47
2022-08-22T07:35:21.737Z,22.45
2022-08-22T07:38:42.335Z,22.53
2022-08-22T07:41:51.192Z,22.43
2022-08-22T07:44:58.176Z,22.36
2022-08-22T07:47:51.657Z,22.41
2022-08-22T07:51:06.067Z,22.31
2022-08-22T07:54:07.042Z,22.42
2022-08-22T07:57:31.746Z,22.56
2022-08-22T08:00:21.226Z,22.85
2022-08-22T08:03:09.464Z,22.93
2022-08-22T08:05:57.598Z,22.89
2022-08-22T08:08:45.652Z,23.00
2022-08-22T08:11:39.592Z,23.04
2022-08-22T08:14:27.959Z,23.06
2022-08-22T08:17:34.433Z,22.84
2022-08-22T08:20:24.394Z,22.92
2022-08-22T08:23:12.987Z,22.98
2022-08-22T08:26:19.539Z,23.11
2022-08-22T08:29:07.278Z,23.27
2022-08-22T08:31:55.523Z,23.28
2022-08-22T08:34:43.652Z,23.33
2022-08-22T08:37:38.947Z,23.51
2022-08-22T08:40:32.552Z,23.70
2022-08-22T08:43:22.519Z,23.56
2022-08-22T08:46:16.890Z,23.37
2022-08-22T08:49:11.099Z,23.36
2022-08-22T08:52:20.410Z,23.22
2022-08-22T08:55:51.374Z,23.13
2022-08-22T08:58:47.516Z,23.25
2022-08-22T09:01:57.441Z,23.36
2022-08-22T09:05:03.192Z,23.44
2022-08-22T09:08:04.568Z,23.42
2022-08-22T09:11:02.422Z,23.33
2022-08-22T09:14:02.842Z,23.33
2022-08-22T09:17:10.732Z,23.34
2022-08-22T09:20:29.910Z,23.35
2022-08-22T09:23:32.225Z,23.35
2022-08-22T09:26:38.372Z,23.39
2022-08-22T09:29:30.516Z,23.31
2022-08-22T09:32:43.445Z,23.37
2022-08-22T09:35:36.573Z,23.22
2022-08-22T09:38:47.765Z,23.23
2022-08-22T09:41:41.451Z,23.26
2022-08-22T09:44:57.569Z,23.20
2022-08-22T09:48:07.354Z,23.13
2022-08-22T09:51:28.621Z,23.34
2022-08-22T09:54:32.718Z,23.44
2022-08-22T09:57:22.638Z,23.25
2022-08-22T10:00:17.822Z,23.43
2022-08-22T10:03:16.096Z,23.23
2022-08-22T10:06:11.410Z,23.43
2022-08-22T10:09:09.104Z,23.69
2022-08-22T10:12:05.526Z,23.87
2022-08-22T10:15:21.711Z,23.89
2022-08-22T10:18:36.477Z,24.03
2022-08-22T10:22:11.920Z,24.29
2022-08-22T10:28:43.339Z,25.12
2022-08-22T10:31:59.519Z,25.12
2022-08-22T10:34:49.667Z,24.71
2022-08-22T10:37:46.120Z,25.09
2022-08-22T10:40:51.274Z,25.40
2022-08-22T10:43:46.173Z,25.27
2022-08-22T10:47:01.047Z,25.33
2022-08-22T10:49:51.837Z,25.41
2022-08-22T10:52:46.512Z,25.31
2022-08-22T10:55:37.643Z,25.15
2022-08-22T10:58:28.459Z,25.14
2022-08-22T11:01:37.926Z,25.43
2022-08-22T11:04:40.855Z,25.90
2022-08-22T11:07:28.688Z,26.29
2022-08-22T11:10:44.990Z,26.30
2022-08-22T11:14:00.333Z,26.31
2022-08-22T11:17:27.545Z,26.78
2022-08-22T11:20:24.328Z,26.86
2022-08-22T11:23:27.974Z,26.56
2022-08-22T11:26:47.321Z,26.75
2022-08-22T11:29:47.998Z,27.11
2022-08-22T11:32:44.009Z,26.81
2022-08-22T11:35:36.408Z,26.62
2022-08-22T11:38:37.887Z,26.53
2022-08-22T11:41:28.336Z,26.40
2022-08-22T11:44:20.996Z,26.14
2022-08-22T11:47:11.823Z,25.91
2022-08-22T11:50:13.646Z,26.00
2022-08-22T11:53:21.799Z,25.97
2022-08-22T11:56:26.235Z,26.07
2022-08-22T11:59:22.460Z,26.36
2022-08-22T12:02:21.892Z,26.14
2022-08-22T12:05:17.937Z,26.71
2022-08-22T12:08:14.177Z,26.77
2022-08-22T12:11:14.142Z,26.63
2022-08-22T12:14:06.618Z,26.82
2022-08-22T12:17:50.607Z,26.48
2022-08-22T12:21:13.479Z,26.18
2022-08-22T12:24:32.340Z,25.99
2022-08-22T12:27:28.961Z,25.55
2022-08-22T12:30:46.098Z,25.58
2022-08-22T12:33:48.734Z,25.70
2022-08-22T12:36:59.634Z,25.25
2022-08-22T12:40:22.285Z,25.15
2022-08-22T12:43:33.432Z,25.14
2022-08-22T12:46:33.233Z,25.17
2022-08-22T12:49:31.676Z,25.18
2022-08-22T12:52:37.594Z,24.72
2022-08-22T12:55:31.313Z,24.56
2022-08-22T12:58:51.339Z,24.53
2022-08-22T13:01:45.005Z,24.45
2022-08-22T13:04:34.359Z,24.48
2022-08-22T13:07:24.137Z,24.39
2022-08-22T13:10:14.401Z,24.30
2022-08-22T13:18:54.176Z,23.88
2022-08-22T13:22:04.339Z,24.01
2022-08-22T13:24:58.409Z,24.33
2022-08-22T13:27:50.676Z,24.64
2022-08-22T13:30:41.333Z,24.86
2022-08-22T13:33:34.197Z,25.25
2022-08-22T13:36:22.916Z,25.13
2022-08-22T13:39:14.304Z,25.14
2022-08-22T13:42:14.209Z,24.80
2022-08-22T13:45:05.380Z,24.30
2022-08-22T13:48:03.788Z,24.14
2022-08-22T13:51:16.639Z,24.25
2022-08-22T13:54:11.031Z,23.99
2022-08-22T13:57:15.957Z,23.61
2022-08-22T14:00:11.069Z,23.61
2022-08-22T14:03:09.615Z,23.15
2022-08-22T14:06:06.225Z,23.33
2022-08-22T14:09:42.334Z,23.30
2022-08-22T14:12:50.096Z,23.24
2022-08-22T14:15:44.961Z,23.18
2022-08-22T14:18:37.055Z,22.99
2022-08-22T14:21:48.119Z,23.28
2022-08-22T14:24:45.544Z,23.01
2022-08-22T14:27:37.225Z,22.94
2022-08-22T14:30:36.587Z,22.64
2022-08-22T14:33:39.866Z,22.94
2022-08-22T14:37:11.332Z,23.01
2022-08-22T14:40:10.789Z,23.01
2022-08-22T14:43:31.894Z,23.03
2022-08-22T14:46:29.869Z,23.01
2022-08-22T14:49:25.770Z,23.30
2022-08-22T14:52:38.405Z,23.33
2022-08-22T14:55:28.270Z,23.55
2022-08-22T14:58:26.523Z,23.40
2022-08-22T15:01:19.095Z,23.83
2022-08-22T15:04:11.644Z,23.57
2022-08-22T15:07:00.179Z,23.38
2022-08-22T15:10:23.240Z,23.31
2022-08-22T15:13:10.876Z,23.27
2022-08-22T15:16:05.699Z,23.11
2022-08-22T15:18:55.724Z,23.25
2022-08-22T15:21:45.271Z,23.04
2022-08-22T15:24:32.922Z,23.05
2022-08-22T15:27:21.174Z,22.95
2022-08-22T15:30:18.599Z,23.24
2022-08-22T15:33:43.471Z,23.23
2022-08-22T15:36:31.246Z,23.16
2022-08-22T15:39:28.365Z,22.82
2022-08-22T15:42:25.127Z,22.61
2022-08-22T15:45:28.937Z,22.61
2022-08-22T15:48:33.205Z,22.73
2022-08-22T15:51:52.712Z,22.62
2022-08-22T15:54:51.060Z,22.78
2022-08-22T15:57:40.498Z,22.70
2022-08-22T16:00:33.870Z,22.63
2022-08-22T16:03:30.795Z,22.62
2022-08-22T16:06:42.554Z,22.43
2022-08-22T16:09:42.715Z,22.56
2022-08-22T16:12:31.889Z,22.66
2022-08-22T16:15:52.841Z,22.46
2022-08-22T16:18:41.762Z,22.61
2022-08-22T16:21:29.495Z,22.76
2022-08-22T16:24:16.902Z,22.96
2022-08-22T16:27:22.856Z,22.57
2022-08-22T16:30:14.689Z,22.58
2022-08-22T16:33:03.019Z,22.52
2022-08-22T16:36:32.427Z,22.52
2022-08-22T16:39:58.586Z,22.57
2022-08-22T16:42:53.297Z,22.49
2022-08-22T16:45:43.250Z,22.38
2022-08-22T16:48:34.587Z,22.31
2022-08-22T16:51:22.442Z,22.44
2022-08-22T16:54:13.173Z,22.53
2022-08-22T16:57:23.845Z,22.18
2022-08-22T17:00:22.296Z,22.38
2022-08-22T17:03:26.598Z,22.26
2022-08-22T17:06:40.311Z,22.36
2022-08-22T17:09:56.733Z,22.40
2022-08-22T17:12:54.505Z,22.52
2022-08-22T17:15:55.291Z,22.36
2022-08-22T17:18:45.947Z,22.22
2022-08-22T17:21:53.953Z,22.02
2022-08-22T17:25:03.733Z,22.24
2022-08-22T17:28:02.468Z,21.98
2022-08-22T17:31:12.972Z,22.04
2022-08-22T17:34:18.437Z,21.98
2022-08-22T17:37:51.346Z,21.93
2022-08-22T17:40:55.781Z,21.94
2022-08-22T17:44:01.443Z,21.63
2022-08-22T17:46:57.523Z,21.66
2022-08-22T17:49:54.807Z,21.64
2022-08-22T17:52:50.961Z,21.62
2022-08-22T17:55:53.691Z,21.59
2022-08-22T17:59:09.860Z,21.58
2022-08-22T18:02:15.928Z,21.56
2022-08-22T18:05:21.592Z,21.55
2022-08-22T18:09:13.275Z,21.39
2022-08-22T18:11:43.300Z,21.14
2022-08-22T18:14:36.421Z,21.05
2022-08-22T18:17:35.521Z,20.83
2022-08-22T18:20:33.497Z,20.76
2022-08-22T18:23:40.556Z,20.64
2022-08-22T18:26:31.299Z,20.64
2022-08-22T18:29:26.591Z,20.59
2022-08-22T18:32:33.706Z,20.58
2022-08-22T18:35:27.118Z,20.63
2022-08-22T18:38:22.985Z,20.70
2022-08-22T18:41:15.455Z,20.62
2022-08-22T18:44:20.650Z,20.65
2022-08-22T18:47:16.138Z,20.71
2022-08-22T18:50:31.906Z,20.68
2022-08-22T18:53:36.374Z,20.72
2022-08-22T18:56:38.193Z,20.53
2022-08-22T18:59:43.336Z,20.48
2022-08-22T19:03:00.765Z,20.45
2022-08-22T19:06:24.126Z,20.50
2022-08-22T19:09:19.093Z,20.44
2022-08-22T19:12:36.521Z,20.41
2022-08-22T19:15:30.103Z,20.38
2022-08-22T19:18:29.345Z,20.40
2022-08-22T19:21:24.885Z,20.51
2022-08-22T19:24:36.896Z,20.49
2022-08-22T19:27:31.237Z,20.40
2022-08-22T19:30:43.439Z,20.45
2022-08-22T19:33:41.285Z,20.48
2022-08-22T19:36:32.321Z,20.52
2022-08-22T19:39:38.678Z,20.47
2022-08-22T19:42:32.399Z,20.35
2022-08-22T19:45:26.594Z,20.35
2022-08-22T19:48:14.730Z,20.23
2022-08-22T19:51:07.616Z,20.40
2022-08-22T19:54:16.377Z,20.28
2022-08-22T19:57:20.677Z,20.31
2022-08-22T20:00:19.715Z,20.36
2022-08-22T20:03:22.793Z,20.33
2022-08-22T20:06:44.341Z,20.37
2022-08-22T20:09:48.382Z,20.45
2022-08-22T20:12:41.131Z,20.32
2022-08-22T20:15:31.399Z,20.42
2022-08-22T20:19:05.080Z,20.18
2022-08-22T20:22:00.680Z,20.25
2022-08-22T20:24:53.897Z,20.32
2022-08-22T20:27:50.779Z,20.38
2022-08-22T20:30:42.532Z,20.37
2022-08-22T20:33:39.664Z,20.27
2022-08-22T20:36:28.664Z,20.40
2022-08-22T20:39:22.781Z,20.24
2022-08-22T20:42:14.077Z,20.02
2022-08-22T20:45:12.048Z,20.06
2022-08-22T20:48:00.500Z,19.90
2022-08-22T20:50:48.653Z,19.95
2022-08-22T20:53:36.431Z,20.08
2022-08-22T20:57:01.001Z,20.28
2022-08-22T20:59:58.960Z,20.22
2022-08-22T21:02:53.531Z,20.09
2022-08-22T21:05:44.317Z,20.18
2022-08-22T21:08:32.145Z,20.18
2022-08-22T21:11:22.753Z,20.11
2022-08-22T21:14:24.857Z,20.10
2022-08-22T21:17:25.620Z,20.25
2022-08-22T21:20:20.152Z,20.08
2022-08-22T21:23:12.755Z,19.99
2022-08-22T21:26:03.790Z,20.07
2022-08-22T21:29:01.387Z,20.09
2022-08-22T21:32:04.806Z,20.15
2022-08-22T21:34:53.186Z,20.05
2022-08-22T21:37:45.604Z,19.93
2022-08-22T21:40:35.645Z,19.91
2022-08-22T21:43:29.912Z,19.94
2022-08-22T21:46:25.336Z,19.89
2022-08-22T21:49:39.454Z,19.90
2022-08-22T21:52:28.800Z,20.11
2022-08-22T21:55:34.559Z,20.08
2022-08-22T21:58:36.941Z,20.15
2022-08-22T22:01:28.202Z,20.11
2022-08-22T22:04:16.396Z,20.11
2022-08-22T22:07:03.963Z,20.15
2022-08-22T22:09:54.932Z,20.06
2022-08-22T22:12:44.581Z,20.05
2022-08-22T22:15:45.034Z,20.10
2022-08-22T22:18:33.172Z,20.09
2022-08-22T22:21:21.676Z,20.16
2022-08-22T22:24:09.226Z,20.05
2022-08-22T22:26:57.533Z,19.93
2022-08-22T22:29:45.122Z,19.93
2022-08-22T22:32:33.080Z,20.03
2022-08-22T22:35:20.648Z,19.93
2022-08-22T22:38:08.819Z,19.84
2022-08-22T22:40:56.350Z,19.95
2022-08-22T22:43:44.229Z,19.88
2022-08-22T22:46:31.797Z,19.90
2022-08-22T22:49:19.737Z,19.90
2022-08-22T22:52:07.314Z,19.93
2022-08-22T22:54:59.480Z,19.92
2022-08-22T22:57:47.039Z,19.86
2022-08-22T23:00:35.679Z,20.06
2022-08-22T23:03:23.348Z,19.96
2022-08-22T23:06:12.743Z,19.87
2022-08-22T23:09:00.304Z,19.86
2022-08-22T23:11:48.144Z,19.91
2022-08-22T23:14:35.826Z,20.06
2022-08-22T23:17:23.670Z,20.13
2022-08-22T23:20:11.362Z,19.89
2022-08-22T23:22:59.326Z,19.85
2022-08-22T23:25:46.889Z,19.74
2022-08-22T23:28:34.844Z,19.81
2022-08-22T23:31:34.682Z,19.95
2022-08-22T23:34:25.334Z,20.05
2022-08-22T23:37:15.475Z,20.01
2022-08-22T23:40:04.629Z,20.00
2022-08-22T23:42:52.152Z,20.10
2022-08-22T23:45:40.009Z,20.07
2022-08-22T23:48:28.056Z,20.01
2022-08-22T23:51:23.055Z,20.06
2022-08-22T23:54:11.221Z,20.07
2022-08-22T23:57:01.082Z,20.06
2022-08-22T23:59:57.710Z,20.09
